createdAt,value
2022-12-09T00:02:02.429Z,34.63
2022-12-09T00:04:29.254Z,36.20
2022-12-09T00:06:55.949Z,34.73
2022-12-09T00:09:22.638Z,34.30
2022-12-09T00:11:49.207Z,31.73
2022-12-09T00:14:15.694Z,32.27
2022-12-09T00:16:42.254Z,35.27
2022-12-09T00:19:08.852Z,32.47
2022-12-09T00:21:35.913Z,30.43
2022-12-09T00:24:04.695Z,30.53
2022-12-09T00:26:31.656Z,31.90
2022-12-09T00:28:58.897Z,32.03
2022-12-09T00:31:27.793Z,33.83
2022-12-09T00:33:58.894Z,32.83
2022-12-09T00:36:25.697Z,34.27
2022-12-09T00:38:53.368Z,31.80
2022-12-09T00:41:20.249Z,33.17
2022-12-09T00:43:48.905Z,32.80
2022-12-09T00:46:15.377Z,37.17
2022-12-09T00:48:43.083Z,36.90
2022-12-09T00:51:12.757Z,39.20
2022-12-09T00:53:39.663Z,36.50
2022-12-09T00:56:07.014Z,38.57
2022-12-09T00:58:34.380Z,40.30
2022-12-09T01:01:00.961Z,36.33
2022-12-09T01:03:27.933Z,36.33
2022-12-09T01:05:55.429Z,36.90
2022-12-09T01:08:22.171Z,37.73
2022-12-09T01:10:49.070Z,37.70
2022-12-09T01:13:15.990Z,41.27
2022-12-09T01:15:43.016Z,36.63
2022-12-09T01:18:10.590Z,36.47
2022-12-09T01:20:37.352Z,38.77
2022-12-09T01:23:04.056Z,37.33
2022-12-09T01:25:30.598Z,38.80
2022-12-09T01:27:57.040Z,37.97
2022-12-09T01:30:23.885Z,36.17
2022-12-09T01:32:50.881Z,34.53
2022-12-09T01:35:17.675Z,38.90
2022-12-09T01:37:45.066Z,39.10
2022-12-09T01:40:16.796Z,37.93
2022-12-09T01:42:43.623Z,34.87
2022-12-09T01:45:19.864Z,35.33
2022-12-09T01:47:47.570Z,36.97
2022-12-09T01:50:14.420Z,37.13
2022-12-09T01:52:41.495Z,36.37
2022-12-09T01:55:08.608Z,32.30
2022-12-09T01:57:35.806Z,40.30
2022-12-09T02:00:02.716Z,35.23
2022-12-09T02:02:30.641Z,32.50
2022-12-09T02:04:57.909Z,34.83
2022-12-09T02:07:27.192Z,37.80
2022-12-09T02:09:54.133Z,35.60
2022-12-09T02:12:32.676Z,38.40
2022-12-09T02:15:18.623Z,33.20
2022-12-09T02:17:53.334Z,35.23
2022-12-09T02:20:26.122Z,30.77
2022-12-09T02:23:03.793Z,34.53
2022-12-09T02:25:32.303Z,34.37
2022-12-09T02:27:59.155Z,34.30
2022-12-09T02:30:32.454Z,32.67
2022-12-09T02:33:02.119Z,33.43
2022-12-09T02:35:35.990Z,31.67
2022-12-09T02:38:06.194Z,30.27
2022-12-09T02:40:42.318Z,30.53
2022-12-09T02:43:09.921Z,27.07
2022-12-09T02:45:38.825Z,26.77
2022-12-09T02:48:06.263Z,28.80
2022-12-09T02:50:34.923Z,31.23
2022-12-09T02:53:05.903Z,26.97
2022-12-09T02:55:33.656Z,29.27
2022-12-09T02:58:00.778Z,27.73
2022-12-09T03:00:29.511Z,27.17
2022-12-09T03:02:57.853Z,31.17
2022-12-09T03:05:24.627Z,31.83
2022-12-09T03:08:01.118Z,33.80
2022-12-09T03:10:31.126Z,29.10
2022-12-09T03:13:17.798Z,31.13
2022-12-09T03:15:46.607Z,32.03
2022-12-09T03:18:15.226Z,30.97
2022-12-09T03:20:43.398Z,33.70
2022-12-09T03:23:12.616Z,33.37
2022-12-09T03:25:44.579Z,29.67
2022-12-09T03:28:14.126Z,29.00
2022-12-09T03:30:42.064Z,28.60
2022-12-09T03:33:09.535Z,28.50
2022-12-09T03:35:38.208Z,29.77
2022-12-09T03:38:06.189Z,29.13
2022-12-09T03:40:33.807Z,32.37
2022-12-09T03:43:02.391Z,31.60
2022-12-09T03:45:29.112Z,32.40
2022-12-09T03:47:56.363Z,32.53
2022-12-09T03:50:24.726Z,30.83
2022-12-09T03:52:52.860Z,32.63
2022-12-09T03:55:24.418Z,31.40
2022-12-09T03:57:52.851Z,33.83
2022-12-09T04:00:19.578Z,31.60
2022-12-09T04:02:46.431Z,30.47
2022-12-09T04:05:13.209Z,29.90
2022-12-09T04:07:40.196Z,31.43
2022-12-09T04:10:07.480Z,30.30
2022-12-09T04:12:35.175Z,27.77
2022-12-09T04:15:02.001Z,26.90
2022-12-09T04:17:28.962Z,27.50
2022-12-09T04:19:56.839Z,27.73
2022-12-09T04:22:23.531Z,31.07
2022-12-09T04:24:50.342Z,30.97
2022-12-09T04:27:17.008Z,28.30
2022-12-09T04:29:44.087Z,26.57
2022-12-09T04:32:11.115Z,29.10
2022-12-09T04:34:37.777Z,26.90
2022-12-09T04:37:04.534Z,28.33
2022-12-09T04:39:31.413Z,31.33
2022-12-09T04:41:57.913Z,28.17
2022-12-09T04:44:24.466Z,28.50
2022-12-09T04:46:51.024Z,30.63
2022-12-09T04:49:17.577Z,30.27
2022-12-09T04:51:45.210Z,30.57
2022-12-09T04:54:14.826Z,30.13
2022-12-09T04:56:41.948Z,31.27
2022-12-09T04:59:08.879Z,29.60
2022-12-09T05:01:35.520Z,27.97
2022-12-09T05:04:02.452Z,30.33
2022-12-09T05:06:29.672Z,29.90
2022-12-09T05:08:56.654Z,29.13
2022-12-09T05:11:24.212Z,30.03
2022-12-09T05:13:52.042Z,32.07
2022-12-09T05:16:19.877Z,28.00
2022-12-09T05:18:47.529Z,26.23
2022-12-09T05:21:21.585Z,29.50
2022-12-09T05:23:48.702Z,29.00
2022-12-09T05:26:17.222Z,31.93
2022-12-09T05:28:44.296Z,28.10
2022-12-09T05:31:13.235Z,35.73
2022-12-09T05:33:39.968Z,27.90
2022-12-09T05:36:10.534Z,32.27
2022-12-09T05:38:37.133Z,35.27
2022-12-09T05:41:04.071Z,30.40
2022-12-09T05:43:31.699Z,31.33
2022-12-09T05:45:58.926Z,33.07
2022-12-09T05:48:25.721Z,31.40
2022-12-09T05:51:06.549Z,31.33
2022-12-09T05:53:33.474Z,25.77
2022-12-09T05:56:00.874Z,25.40
2022-12-09T05:58:27.692Z,32.77
2022-12-09T06:00:56.716Z,31.30
2022-12-09T06:03:24.371Z,31.70
2022-12-09T06:05:51.388Z,31.80
2022-12-09T06:08:18.167Z,35.47
2022-12-09T06:10:44.950Z,34.97
2022-12-09T06:13:11.655Z,32.43
2022-12-09T06:15:38.543Z,33.50
2022-12-09T06:18:05.646Z,28.50
2022-12-09T06:20:32.516Z,34.97
2022-12-09T06:22:59.465Z,31.70
2022-12-09T06:25:26.191Z,23.87
2022-12-09T06:27:53.896Z,34.60
2022-12-09T06:30:21.002Z,36.10
2022-12-09T06:32:47.762Z,28.23
2022-12-09T06:35:15.430Z,36.23
2022-12-09T06:37:42.358Z,28.50
2022-12-09T06:40:09.542Z,37.07
2022-12-09T06:42:36.336Z,31.60
2022-12-09T06:45:03.207Z,41.43
2022-12-09T06:47:29.879Z,36.23
2022-12-09T06:50:04.383Z,37.90
2022-12-09T06:52:33.056Z,30.77
2022-12-09T06:54:59.969Z,37.40
2022-12-09T06:57:26.847Z,34.37
2022-12-09T06:59:53.780Z,33.00
2022-12-09T07:02:20.739Z,38.03
2022-12-09T07:04:47.892Z,36.37
2022-12-09T07:07:15.925Z,39.00
2022-12-09T07:09:42.753Z,41.57
2022-12-09T07:12:09.386Z,42.73
2022-12-09T07:14:40.551Z,41.87
2022-12-09T07:17:07.793Z,47.80
2022-12-09T07:19:34.527Z,38.00
2022-12-09T07:22:01.232Z,45.33
2022-12-09T07:24:27.866Z,47.40
2022-12-09T07:26:54.529Z,43.37
2022-12-09T07:29:21.567Z,36.13
2022-12-09T07:31:48.785Z,38.20
2022-12-09T07:34:15.941Z,37.03
2022-12-09T07:36:42.659Z,44.87
2022-12-09T07:39:13.566Z,49.47
2022-12-09T07:41:40.685Z,49.13
2022-12-09T07:44:07.451Z,36.57
2022-12-09T07:46:34.083Z,44.63
2022-12-09T07:49:01.964Z,41.43
2022-12-09T07:51:29.534Z,43.77
2022-12-09T07:53:56.516Z,47.13
2022-12-09T07:56:25.010Z,58.90
2022-12-09T07:58:54.134Z,49.47
2022-12-09T08:01:25.246Z,48.57
2022-12-09T08:03:54.496Z,45.33
2022-12-09T08:06:22.637Z,45.63
2022-12-09T08:08:53.127Z,45.53
2022-12-09T08:11:21.749Z,44.33
2022-12-09T08:13:49.718Z,43.23
2022-12-09T08:16:19.571Z,47.00
2022-12-09T08:18:48.733Z,41.00
2022-12-09T08:21:16.987Z,50.47
2022-12-09T08:23:44.312Z,48.77
2022-12-09T08:26:12.189Z,53.77
2022-12-09T08:28:39.551Z,52.77
2022-12-09T08:31:10.833Z,48.70
2022-12-09T08:33:40.038Z,58.47
2022-12-09T08:36:12.316Z,52.83
2022-12-09T08:38:39.463Z,58.70
2022-12-09T08:41:43.177Z,59.53
2022-12-09T08:44:13.669Z,62.47
2022-12-09T08:46:43.054Z,48.97
2022-12-09T08:49:10.986Z,55.43
2022-12-09T08:51:40.500Z,45.53
2022-12-09T08:54:08.619Z,52.27
2022-12-09T08:56:35.499Z,52.13
2022-12-09T08:59:03.160Z,63.73
2022-12-09T09:01:35.894Z,60.17
2022-12-09T09:04:05.050Z,56.63
2022-12-09T09:06:32.537Z,59.67
2022-12-09T09:09:00.116Z,62.70
2022-12-09T09:11:27.156Z,54.17
2022-12-09T09:13:55.406Z,63.80
2022-12-09T09:16:25.644Z,61.13
2022-12-09T09:18:53.662Z,67.70
2022-12-09T09:21:22.498Z,57.90
2022-12-09T09:23:49.595Z,74.70
2022-12-09T09:26:17.884Z,53.17
2022-12-09T09:28:45.168Z,62.77
2022-12-09T09:31:13.539Z,57.33
2022-12-09T09:33:40.765Z,48.90
2022-12-09T09:36:10.534Z,51.13
2022-12-09T09:38:38.482Z,52.77
2022-12-09T09:41:17.299Z,57.17
2022-12-09T09:43:44.580Z,67.00
2022-12-09T09:46:16.239Z,54.07
2022-12-09T09:48:43.390Z,51.53
2022-12-09T09:51:15.831Z,49.93
2022-12-09T09:53:42.458Z,52.37
2022-12-09T09:56:15.166Z,53.40
2022-12-09T09:58:45.804Z,52.90
2022-12-09T10:01:17.952Z,46.33
2022-12-09T10:04:00.266Z,40.37
2022-12-09T10:06:38.336Z,36.83
2022-12-09T10:09:13.360Z,37.30
2022-12-09T10:11:49.533Z,51.70
2022-12-09T10:14:38.150Z,50.30
2022-12-09T10:17:05.567Z,43.47
2022-12-09T10:19:37.126Z,41.90
2022-12-09T10:22:13.565Z,39.00
2022-12-09T10:24:46.069Z,42.37
2022-12-09T10:27:27.785Z,44.03
2022-12-09T10:29:56.706Z,44.00
2022-12-09T10:32:25.756Z,35.13
2022-12-09T10:34:52.709Z,36.97
2022-12-09T10:37:25.937Z,40.93
2022-12-09T10:39:55.578Z,39.93
2022-12-09T10:42:41.240Z,38.87
2022-12-09T10:45:09.383Z,39.53
2022-12-09T10:47:39.541Z,29.10
2022-12-09T10:50:08.182Z,35.70
2022-12-09T10:52:44.485Z,35.83
2022-12-09T10:55:21.527Z,40.37
2022-12-09T10:57:48.542Z,30.73
2022-12-09T11:00:25.293Z,31.37
2022-12-09T11:02:55.640Z,38.40
2022-12-09T11:05:27.742Z,33.47
2022-12-09T11:07:57.182Z,28.37
2022-12-09T11:10:28.294Z,32.97
2022-12-09T11:13:00.448Z,32.27
2022-12-09T11:15:27.400Z,32.43
2022-12-09T11:17:56.857Z,29.57
2022-12-09T11:20:31.622Z,33.97
2022-12-09T11:23:16.112Z,33.53
2022-12-09T11:25:59.790Z,28.30
2022-12-09T11:28:29.314Z,32.63
2022-12-09T11:33:55.617Z,27.33
2022-12-09T11:36:25.638Z,24.00
2022-12-09T11:39:06.587Z,25.57
2022-12-09T11:41:51.870Z,22.20
2022-12-09T11:44:30.326Z,23.57
2022-12-09T11:47:03.122Z,24.80
2022-12-09T11:49:31.159Z,22.03
2022-12-09T11:52:03.006Z,25.57
2022-12-09T11:54:29.454Z,21.53
2022-12-09T11:56:56.628Z,21.07
2022-12-09T11:59:26.030Z,22.87
2022-12-09T12:02:11.495Z,19.17
2022-12-09T12:04:41.701Z,19.07
2022-12-09T12:07:28.391Z,17.97
2022-12-09T12:09:56.174Z,17.63
2022-12-09T12:12:31.703Z,18.37
2022-12-09T12:15:01.857Z,17.37
2022-12-09T12:17:42.984Z,16.93
2022-12-09T12:20:13.469Z,16.80
2022-12-09T12:22:42.660Z,13.93
2022-12-09T12:25:18.434Z,18.33
2022-12-09T12:27:51.187Z,15.13
2022-12-09T12:30:19.489Z,15.40
2022-12-09T12:33:40.695Z,12.97
2022-12-09T12:35:47.645Z,17.97
2022-12-09T12:38:30.999Z,15.60
2022-12-09T12:41:16.666Z,18.10
2022-12-09T12:44:07.985Z,17.67
2022-12-09T12:46:41.624Z,16.43
2022-12-09T12:49:14.166Z,17.20
2022-12-09T12:51:59.508Z,17.87
2022-12-09T12:54:49.595Z,18.60
2022-12-09T12:57:22.093Z,21.53
2022-12-09T12:59:48.598Z,24.33
2022-12-09T13:02:27.364Z,19.90
2022-12-09T13:05:03.609Z,20.30
2022-12-09T13:07:35.421Z,20.50
2022-12-09T13:10:11.136Z,21.67
2022-12-09T13:12:55.240Z,22.70
2022-12-09T13:15:23.897Z,22.70
2022-12-09T13:17:50.729Z,22.87
2022-12-09T13:20:37.579Z,24.37
2022-12-09T13:23:12.164Z,23.43
2022-12-09T13:26:02.819Z,20.30
2022-12-09T13:28:29.289Z,23.97
2022-12-09T13:30:57.728Z,20.03
2022-12-09T13:33:33.323Z,24.63
2022-12-09T13:36:15.878Z,23.27
2022-12-09T13:38:42.880Z,19.57
2022-12-09T13:41:28.247Z,20.60
2022-12-09T13:44:05.388Z,19.67
2022-12-09T13:46:32.645Z,18.83
2022-12-09T13:49:08.511Z,19.67
2022-12-09T13:51:44.252Z,20.40
2022-12-09T13:54:12.536Z,19.40
2022-12-09T13:56:39.162Z,19.67
2022-12-09T13:59:24.497Z,17.37
2022-12-09T14:02:02.008Z,19.07
2022-12-09T14:04:30.153Z,17.53
2022-12-09T14:07:14.658Z,19.73
2022-12-09T14:09:43.875Z,18.23
2022-12-09T14:12:13.113Z,16.20
2022-12-09T14:14:50.863Z,17.40
2022-12-09T14:17:37.331Z,19.20
2022-12-09T14:20:17.156Z,21.93
2022-12-09T14:23:02.828Z,21.57
2022-12-09T14:25:29.313Z,22.80
2022-12-09T14:28:31.127Z,18.57
2022-12-09T14:31:04.782Z,21.47
2022-12-09T14:33:39.070Z,19.80
2022-12-09T14:36:14.370Z,22.40
2022-12-09T14:39:16.068Z,21.60
2022-12-09T14:41:44.233Z,21.00
2022-12-09T14:44:32.123Z,20.13
2022-12-09T14:47:13.626Z,20.53
2022-12-09T14:49:48.858Z,21.40
2022-12-09T14:52:24.797Z,21.40
2022-12-09T14:54:56.320Z,22.77
2022-12-09T14:57:28.870Z,23.37
2022-12-09T14:59:56.417Z,22.00
2022-12-09T15:02:29.769Z,22.67
2022-12-09T15:04:57.586Z,21.43
2022-12-09T15:07:25.527Z,23.50
2022-12-09T15:10:00.197Z,22.00
2022-12-09T15:12:37.677Z,21.83
2022-12-09T15:15:04.257Z,21.93
2022-12-09T15:17:34.981Z,23.30
2022-12-09T15:20:02.464Z,21.90
2022-12-09T15:22:32.473Z,23.90
2022-12-09T15:25:03.153Z,24.23
2022-12-09T15:27:30.034Z,24.13
2022-12-09T15:29:56.563Z,24.93
2022-12-09T15:32:28.802Z,26.60
2022-12-09T15:34:55.773Z,25.70
2022-12-09T15:37:24.878Z,25.63
2022-12-09T15:40:04.078Z,25.27
2022-12-09T15:42:33.007Z,24.87
2022-12-09T15:45:19.885Z,26.60
2022-12-09T15:47:49.955Z,26.17
2022-12-09T15:50:23.256Z,25.40
2022-12-09T15:52:55.862Z,26.20
2022-12-09T15:55:25.673Z,28.63
2022-12-09T15:57:53.889Z,31.80
2022-12-09T16:00:20.595Z,31.60
2022-12-09T16:02:47.969Z,29.67
2022-12-09T16:05:20.974Z,30.67
2022-12-09T16:08:00.702Z,30.23
2022-12-09T16:10:28.688Z,29.50
2022-12-09T16:13:08.421Z,27.43
2022-12-09T16:16:01.190Z,31.10
2022-12-09T16:18:35.462Z,32.90
2022-12-09T16:21:08.334Z,35.27
2022-12-09T16:23:34.991Z,36.27
2022-12-09T16:26:06.991Z,35.17
2022-12-09T16:28:34.103Z,37.20
2022-12-09T16:31:02.143Z,36.87
2022-12-09T16:33:31.113Z,38.30
2022-12-09T16:36:05.098Z,38.50
2022-12-09T16:38:33.353Z,40.60
2022-12-09T16:41:04.385Z,36.07
2022-12-09T16:43:31.051Z,42.10
2022-12-09T16:46:02.032Z,40.07
2022-12-09T16:48:29.374Z,41.33
2022-12-09T16:51:05.890Z,39.80
2022-12-09T16:53:39.786Z,43.03
2022-12-09T16:56:06.559Z,43.73
2022-12-09T16:58:34.027Z,43.67
2022-12-09T17:01:01.286Z,43.17
2022-12-09T17:03:33.464Z,41.70
2022-12-09T17:05:59.981Z,40.50
2022-12-09T17:08:27.649Z,39.00
2022-12-09T17:10:59.704Z,39.20
2022-12-09T17:13:26.783Z,38.20
2022-12-09T17:15:58.096Z,45.60
2022-12-09T17:18:25.354Z,37.10
2022-12-09T17:21:01.904Z,37.27
2022-12-09T17:23:28.764Z,31.97
2022-12-09T17:25:56.079Z,36.97
2022-12-09T17:28:27.046Z,35.53
2022-12-09T17:30:57.741Z,41.37
2022-12-09T17:33:25.238Z,39.57
2022-12-09T17:35:52.055Z,37.27
2022-12-09T17:38:19.055Z,35.17
2022-12-09T17:40:45.691Z,36.10
2022-12-09T17:43:13.644Z,38.43
2022-12-09T17:45:42.254Z,34.03
2022-12-09T17:48:09.117Z,35.20
2022-12-09T17:50:37.240Z,31.60
2022-12-09T17:53:03.774Z,29.37
2022-12-09T17:55:30.397Z,30.97
2022-12-09T17:57:56.953Z,30.87
2022-12-09T18:00:24.733Z,32.53
2022-12-09T18:02:51.310Z,33.63
2022-12-09T18:05:17.968Z,31.90
2022-12-09T18:07:45.446Z,33.80
2022-12-09T18:10:12.249Z,32.50
2022-12-09T18:12:40.088Z,34.47
2022-12-09T18:15:08.171Z,32.77
2022-12-09T18:17:34.816Z,31.83
2022-12-09T18:20:01.523Z,33.63
2022-12-09T18:22:28.031Z,35.60
2022-12-09T18:24:55.271Z,34.60
2022-12-09T18:27:21.875Z,34.50
2022-12-09T18:29:48.608Z,33.43
2022-12-09T18:32:15.391Z,31.60
2022-12-09T18:34:41.975Z,32.93
2022-12-09T18:37:08.648Z,34.23
2022-12-09T18:39:38.909Z,36.00
2022-12-09T18:42:06.297Z,35.97
2022-12-09T18:44:33.030Z,38.57
2022-12-09T18:47:00.289Z,36.90
2022-12-09T18:49:28.607Z,34.03
2022-12-09T18:51:55.757Z,33.27
2022-12-09T18:54:23.839Z,36.47
2022-12-09T18:56:50.999Z,35.50
2022-12-09T18:59:17.943Z,35.97
2022-12-09T19:01:45.250Z,36.97
2022-12-09T19:04:16.447Z,36.47
2022-12-09T19:06:44.387Z,35.70
2022-12-09T19:09:15.695Z,37.63
2022-12-09T19:11:44.616Z,39.40
2022-12-09T19:14:11.375Z,36.40
2022-12-09T19:16:38.297Z,38.63
2022-12-09T19:19:09.968Z,39.87
2022-12-09T19:21:39.757Z,39.50
2022-12-09T19:24:07.161Z,36.97
2022-12-09T19:26:34.780Z,40.17
2022-12-09T19:29:04.904Z,37.20
2022-12-09T19:31:33.553Z,38.87
2022-12-09T19:34:01.712Z,41.23
2022-12-09T19:36:29.150Z,40.27
2022-12-09T19:38:57.029Z,41.93
2022-12-09T19:41:23.824Z,43.63
2022-12-09T19:44:00.130Z,43.53
2022-12-09T19:46:30.215Z,41.47
2022-12-09T19:48:57.588Z,44.77
2022-12-09T19:51:25.343Z,42.77
2022-12-09T19:53:56.272Z,47.57
2022-12-09T19:56:23.505Z,44.27
2022-12-09T19:58:53.803Z,48.57
2022-12-09T20:01:21.938Z,48.57
2022-12-09T20:03:52.452Z,49.83
2022-12-09T20:06:20.270Z,54.57
2022-12-09T20:08:48.551Z,49.43
2022-12-09T20:11:17.513Z,50.00
2022-12-09T20:13:45.941Z,49.17
2022-12-09T20:16:16.972Z,50.87
2022-12-09T20:18:48.479Z,53.43
2022-12-09T20:21:16.277Z,56.77
2022-12-09T20:23:43.781Z,51.33
2022-12-09T20:26:11.976Z,53.50
2022-12-09T20:28:39.249Z,50.70
2022-12-09T20:31:06.856Z,55.23
2022-12-09T20:33:33.480Z,50.23
2022-12-09T20:36:10.351Z,50.33
2022-12-09T20:38:37.401Z,48.73
2022-12-09T20:41:09.887Z,53.77
2022-12-09T20:43:39.720Z,52.13
2022-12-09T20:46:07.376Z,49.93
2022-12-09T20:48:34.224Z,47.23
2022-12-09T20:51:03.132Z,48.97
2022-12-09T20:53:29.850Z,49.87
2022-12-09T20:55:57.245Z,51.70
2022-12-09T20:58:23.975Z,50.40
2022-12-09T21:00:50.734Z,50.67
2022-12-09T21:03:17.567Z,50.97
2022-12-09T21:05:44.113Z,47.20
2022-12-09T21:08:10.650Z,45.90
2022-12-09T21:10:38.473Z,47.00
2022-12-09T21:13:05.050Z,48.77
2022-12-09T21:15:31.636Z,47.37
2022-12-09T21:17:58.212Z,47.53
2022-12-09T21:20:24.712Z,53.33
2022-12-09T21:23:10.621Z,48.37
2022-12-09T21:25:37.663Z,49.13
2022-12-09T21:28:04.297Z,50.03
2022-12-09T21:30:30.817Z,49.37
2022-12-09T21:32:57.293Z,47.50
2022-12-09T21:35:23.751Z,52.90
2022-12-09T21:37:55.849Z,50.90
2022-12-09T21:40:22.799Z,54.67
2022-12-09T21:42:49.319Z,51.13
2022-12-09T21:45:15.993Z,53.33
2022-12-09T21:47:42.449Z,51.83
2022-12-09T21:50:09.461Z,50.37
2022-12-09T21:52:36.213Z,53.13
2022-12-09T21:55:03.514Z,52.20
2022-12-09T21:57:30.029Z,45.73
2022-12-09T21:59:56.535Z,57.03
2022-12-09T22:02:23.054Z,55.83
2022-12-09T22:04:52.480Z,55.50
2022-12-09T22:07:18.915Z,50.77
2022-12-09T22:09:45.520Z,54.70
2022-12-09T22:12:12.027Z,53.67
2022-12-09T22:14:38.508Z,54.57
2022-12-09T22:17:05.021Z,58.60
2022-12-09T22:19:31.823Z,55.80
2022-12-09T22:21:58.353Z,50.73
2022-12-09T22:24:24.842Z,55.03
2022-12-09T22:26:51.345Z,54.63
2022-12-09T22:29:18.003Z,55.00
2022-12-09T22:31:44.766Z,55.43
2022-12-09T22:34:20.578Z,54.57
2022-12-09T22:36:48.176Z,54.23
2022-12-09T22:39:16.078Z,55.77
2022-12-09T22:41:46.053Z,50.07
2022-12-09T22:44:13.391Z,55.60
2022-12-09T22:46:40.409Z,55.20
2022-12-09T22:49:07.212Z,51.50
2022-12-09T22:51:35.528Z,56.63
2022-12-09T22:54:04.241Z,53.47
2022-12-09T22:56:30.911Z,53.20
2022-12-09T22:58:58.716Z,54.13
2022-12-09T23:01:26.503Z,48.23
2022-12-09T23:03:54.014Z,54.00
2022-12-09T23:06:20.768Z,58.27
2022-12-09T23:08:47.939Z,57.63
2022-12-09T23:11:16.102Z,52.50
2022-12-09T23:13:43.062Z,55.87
2022-12-09T23:16:12.647Z,47.33
2022-12-09T23:18:40.585Z,57.43
2022-12-09T23:21:16.936Z,52.10
2022-12-09T23:23:45.295Z,53.70
2022-12-09T23:26:13.365Z,53.40
2022-12-09T23:28:42.833Z,46.47
2022-12-09T23:31:11.386Z,53.40
2022-12-09T23:33:40.908Z,49.70
2022-12-09T23:36:09.028Z,53.67
2022-12-09T23:38:36.099Z,50.07
2022-12-09T23:41:04.347Z,47.40
2022-12-09T23:43:32.064Z,52.30
2022-12-09T23:46:03.007Z,64.17
2022-12-09T23:48:29.871Z,54.57
2022-12-09T23:50:59.288Z,50.63
2022-12-09T23:53:26.695Z,50.80
2022-12-09T23:55:53.218Z,63.17
2022-12-09T23:58:23.928Z,60.60
